Maple Falls, WA

9:14 PM PDT on September 17, 2014 (GMT -0700)
Peaceful Valley | Change Station
CLOSE
Current Station
Personal Weather Station
Location: Maple Falls, WA
Elevation: 470 ft
Nearby Weather Stations
4.0 Earthquake: Seabeck, Washington (18 hours ago)  

Elev 470 ft 48.94 °N, 122.14 °W | Updated 0 second ago

Overcast
Overcast
61.8 °F
Feels Like 61.8 °F
N
0.0
Wind Variable Wind from SSE
Gusts 0.0 mph

Today
High -- | Low -- °F
--% Chance of Precip.
Yesterday
High -- | Low -- °F
Precip. -- in
6:48 AM 7:16 PM
Waning Crescent, 30% visible
Pressure 29.75 in
Visibility 9.0 miles
Clouds Overcast 9500 ft
Dew Point 57 °F
Humidity 85%
Rainfall 0.00 in
Snow Depth 0 in , 0 in , 0 in
UV 0 out of 12
Pollen 1.40 out of 12
PM2.5 Good
Flu Activity Not available.
METAR KBLI 180353Z 00000KT 9SM OVC095 16/14 A2973 RMK AO2 SLP074 T01560144

More Conditions Fewer Conditions

Pressure 29.75 in
Visibility 9.0 miles
Clouds Overcast 9500 ft
Dew Point 57 °F
Humidity 85%
Rainfall 0.00 in
Snow Depth 0 in , 0 in , 0 in
UV 0 out of 12
Pollen 1.40 out of 12
PM2.5 Good
Flu Activity Not available.
METAR KBLI 180353Z 00000KT 9SM OVC095 16/14 A2973 RMK AO2 SLP074 T01560144

More Conditions Fewer Conditions

10-Day Weather Forecast

Almanac

Astronomy

Sep. 17, 2014 Rise Set
Actual Time 6:48 AM PDT 7:16 PM PDT
Civil Twilight 6:16 AM PDT 7:48 PM PDT
Nautical Twilight 5:38 AM PDT 8:26 PM PDT
Astronomical Twilight 4:59 AM PDT 9:05 PM PDT
Moon 12:31 AM PDT (9/17) 3:51 PM PDT (9/17)
Length of Visible Light 13h 32m
Length of Day
12h 28m
Tomorrow will be 3m 33s shorter.
Waning Crescent, 30% of the Moon is Illuminated
Sep 18
Waning Crescent
Sep 24
New
Oct 1
First Quarter
Oct 8
Full
Oct 15
Last Quarter

Today's Extremes

State Highs State Lows

Community

WunderPhotos

Upload Photos

1,754,290 photos uploaded!

Nearby

Air Quality

  Air Quality AQ Index Pollutant
Yesterday Good
PM2.5
Current Good
PM2.5
Wednesday Good
PM2.5
Wednesday Good
OZONE
Thursday Good
OZONE
Thursday Good
PM2.5
Friday Good
OZONE
Friday Good
PM2.5
Saturday Good
PM2.5
Saturday Good
OZONE
Sunday Good
PM2.5
Sunday Good
OZONE
Monday Good
OZONE
Monday Good
PM2.5

Snow Depth

Station Depth Elevation
June Lake 0 in 3340 ft
Morse Lake 0 in 5400 ft
Green Lake 0 in 6000 ft
Stevens Pass 0 in 4070 ft
Sasse Ridge 0 in 4200 ft

Earthquake Activity

City Distance Mag. Time & Date
Seabeck, Washington 102 miles 4.0 3:06 AM PDT
2014-09-17
Minimum magnitude displayed is 2.5.

Coastal Water Temperatures

Place Temperature
Port Townsend, WA 53.1 °F
Friday Harbor, WA 53.1 °F
Port Angeles, WA 51.1 °F

Nearby Weather Stations